Bookmark and Share
Track history (hours):
 

Vendome Street

Last reported at 2014-Apr-20 10:33 UTC. Time now 2014-Apr-24 00:17 UTC.
Position N 59°37' W 004°06'.

Length 177 m; draft 11.5 m.

Type: Tanker. MMSI: 636015064.

NotesDate/timePositionNaut miles runAvg speedWind from/ knotsBaromVisibWave heightAir tempDewpointWater temp
2014-Apr-20 10:33N 59°37' W 004°06'1210.7
2014-Apr-20 09:25N 59°37' W 003°42'20611.4
2014-Apr-19 15:18N 58°08' E 002°19'25512.3
2014-Apr-18 18:33N 57°50' E 010°19'1211.6
2014-Apr-18 17:33N 57°50' E 010°41'8 7.6
2014-Apr-18 16:33N 57°45' E 010°52'1211.8
2014-Apr-18 15:33N 57°37' E 011°08'1211.9
2014-Apr-18 14:33N 57°29' E 011°24'1212.1
2014-Apr-18 13:33N 57°17' E 011°32'1212.3
2014-Apr-18 12:33N 57°06' E 011°40'1212.2
2014-Apr-18 11:33N 56°54' E 011°47'1111.3
2014-Apr-18 10:33N 56°43' E 011°51'10910.9
2014-Apr-18 00:31N 54°58' E 010°57'1212.2
2014-Apr-17 23:33N 54°47' E 010°49'18 9.0
2014-Apr-17 21:33N 54°35' E 011°13'1212.6
2014-Apr-17 20:33N 54°30' E 011°32'1212.1
2014-Apr-17 19:33N 54°26' E 011°52'1211.6
2014-Apr-17 18:33N 54°28' E 012°12'1211.5
2014-Apr-17 17:33N 54°38' E 012°21'1211.8
2014-Apr-17 16:33N 54°44' E 012°39'1111.5
2014-Apr-17 15:33N 54°49' E 012°56'1212.0
2014-Apr-17 14:33N 54°54' E 013°15'1211.9
2014-Apr-17 13:33N 54°58' E 013°35'1211.7
2014-Apr-17 12:33N 55°01' E 013°54'1211.5
2014-Apr-17 11:33N 55°07' E 014°12'1211.5
2014-Apr-17 10:33N 55°12' E 014°30'1111.1
2014-Apr-17 09:33N 55°19' E 014°45'8 7.9
2014-Apr-17 08:33N 55°21' E 014°59'1110.8
2014-Apr-17 07:33N 55°30' E 015°11'1212.0
2014-Apr-17 06:33N 55°37' E 015°28'1211.7
2014-Apr-17 05:33N 55°42' E 015°47'1211.9
2014-Apr-17 04:31N 55°45' E 016°08'1111.8
2014-Apr-17 03:33N 55°48' E 016°27'1211.9
2014-Apr-17 02:33N 55°51' E 016°48'1211.9
2014-Apr-17 01:33N 55°54' E 017°09'1211.9
2014-Apr-17 00:33N 55°57' E 017°29'1211.7
2014-Apr-16 23:33N 56°01' E 017°48'1211.8
2014-Apr-16 22:33N 56°08' E 018°07'22012.1
2014-Apr-16 04:22N 59°13' E 021°47'4211.0
2014-Apr-16 00:33N 59°30' E 023°03'1411.2
2014-Apr-15 23:18N 59°28' E 023°30'911.8
2014-Apr-15 22:32N 59°25' E 023°47'8 0.2
2014-Apr-13 22:11N 59°28' E 023°32'812.0
2014-Apr-13 21:31N 59°27' E 023°17'  

Dump ship's entire track history

sailing weather and tide predictions

Vendome Street — A8YI6 — position and weather